createdAt,value
2022-12-12T00:00:28.411Z,83.42
2022-12-12T00:02:54.871Z,83.84
2022-12-12T00:05:21.305Z,84.05
2022-12-12T00:07:47.655Z,82.91
2022-12-12T00:10:14.394Z,82.45
2022-12-12T00:12:41.394Z,82.58
2022-12-12T00:15:08.583Z,83.22
2022-12-12T00:17:35.067Z,82.03
2022-12-12T00:20:01.577Z,82.25
2022-12-12T00:22:27.912Z,81.48
2022-12-12T00:24:54.243Z,80.99
2022-12-12T00:27:20.610Z,82.14
2022-12-12T00:29:54.338Z,81.91
2022-12-12T00:32:20.915Z,81.08
2022-12-12T00:34:47.364Z,82.26
2022-12-12T00:37:13.712Z,80.67
2022-12-12T00:39:42.135Z,81.96
2022-12-12T00:42:08.827Z,82.07
2022-12-12T00:44:35.218Z,81.15
2022-12-12T00:47:02.733Z,81.14
2022-12-12T00:49:29.273Z,81.09
2022-12-12T00:51:55.593Z,81.53
2022-12-12T00:54:21.950Z,82.34
2022-12-12T00:56:48.291Z,81.81
2022-12-12T00:59:14.952Z,81.31
2022-12-12T01:01:41.579Z,82.10
2022-12-12T01:04:07.945Z,81.42
2022-12-12T01:06:34.284Z,81.69
2022-12-12T01:09:00.683Z,81.62
2022-12-12T01:11:27.020Z,82.62
2022-12-12T01:13:54.648Z,82.10
2022-12-12T01:16:22.503Z,82.79
2022-12-12T01:18:49.148Z,82.40
2022-12-12T01:21:17.687Z,81.29
2022-12-12T01:23:44.750Z,81.50
2022-12-12T01:26:17.983Z,81.73
2022-12-12T01:28:45.568Z,82.03
2022-12-12T01:31:13.031Z,81.82
2022-12-12T01:33:39.666Z,82.82
2022-12-12T01:36:06.831Z,81.90
2022-12-12T01:38:33.261Z,81.79
2022-12-12T01:40:59.585Z,82.95
2022-12-12T01:43:26.032Z,81.47
2022-12-12T01:46:31.369Z,81.98
2022-12-12T01:49:06.408Z,82.99
2022-12-12T01:51:33.851Z,81.90
2022-12-12T01:54:07.255Z,82.89
2022-12-12T01:56:35.159Z,83.04
2022-12-12T01:59:05.068Z,82.46
2022-12-12T02:01:31.943Z,83.34
2022-12-12T02:04:00.458Z,83.52
2022-12-12T02:06:28.685Z,83.25
2022-12-12T02:08:58.079Z,82.59
2022-12-12T02:11:27.806Z,83.73
2022-12-12T02:13:54.394Z,83.98
2022-12-12T02:16:31.932Z,83.62
2022-12-12T02:19:39.824Z,83.93
2022-12-12T02:22:19.385Z,82.46
2022-12-12T02:25:15.797Z,83.25
2022-12-12T02:28:08.189Z,82.62
2022-12-12T02:30:45.028Z,83.06
2022-12-12T02:33:23.781Z,84.20
2022-12-12T02:36:03.466Z,83.21
2022-12-12T02:38:49.964Z,83.59
2022-12-12T02:41:29.083Z,83.92
2022-12-12T02:43:55.372Z,84.64
2022-12-12T02:46:32.810Z,83.54
2022-12-12T02:49:09.804Z,84.59
2022-12-12T02:51:38.200Z,83.58
2022-12-12T02:54:06.078Z,83.66
2022-12-12T02:56:43.180Z,83.54
2022-12-12T02:59:12.470Z,83.18
2022-12-12T03:02:17.140Z,83.07
2022-12-12T03:05:14.545Z,84.61
2022-12-12T03:08:04.894Z,83.82
2022-12-12T03:10:37.145Z,83.14
2022-12-12T03:13:03.495Z,84.51
2022-12-12T03:15:54.363Z,84.44
2022-12-12T03:18:28.221Z,84.41
2022-12-12T03:21:03.491Z,82.94
2022-12-12T03:23:39.448Z,83.76
2022-12-12T03:26:16.144Z,83.31
2022-12-12T03:28:52.699Z,84.84
2022-12-12T03:31:23.542Z,84.28
2022-12-12T03:33:54.876Z,83.89
2022-12-12T03:36:33.506Z,83.04
2022-12-12T03:39:06.589Z,83.94
2022-12-12T03:41:40.813Z,83.77
2022-12-12T03:44:13.670Z,83.02
2022-12-12T03:46:53.620Z,84.31
2022-12-12T03:49:39.769Z,84.44
2022-12-12T03:52:21.965Z,83.90
2022-12-12T03:55:08.376Z,84.08
2022-12-12T03:57:41.264Z,83.55
2022-12-12T04:00:10.799Z,84.31
2022-12-12T04:02:47.091Z,84.88
2022-12-12T04:05:20.188Z,83.69
2022-12-12T04:07:53.424Z,84.87
2022-12-12T04:10:42.312Z,83.61
2022-12-12T04:13:26.175Z,84.48
2022-12-12T04:15:58.036Z,83.50
2022-12-12T04:18:37.936Z,83.90
2022-12-12T04:21:36.526Z,83.36
2022-12-12T04:24:22.472Z,83.87
2022-12-12T04:27:07.158Z,83.26
2022-12-12T04:29:53.253Z,83.84
2022-12-12T04:32:26.826Z,84.24
2022-12-12T04:35:14.700Z,83.45
2022-12-12T04:37:43.652Z,82.80
2022-12-12T04:40:14.564Z,83.40
2022-12-12T04:42:46.362Z,83.84
2022-12-12T04:45:20.764Z,83.53
2022-12-12T04:47:50.310Z,83.31
2022-12-12T04:50:18.962Z,83.81
2022-12-12T04:52:48.174Z,83.74
2022-12-12T04:55:21.890Z,83.82
2022-12-12T04:57:50.725Z,83.45
2022-12-12T05:00:18.024Z,84.91
2022-12-12T05:02:58.140Z,84.85
2022-12-12T05:05:29.651Z,83.94
2022-12-12T05:08:19.738Z,84.07
2022-12-12T05:10:50.579Z,84.49
2022-12-12T05:13:19.713Z,85.01
2022-12-12T05:15:48.263Z,85.09
2022-12-12T05:18:14.594Z,84.28
2022-12-12T05:20:41.196Z,84.60
2022-12-12T05:23:07.739Z,84.83
2022-12-12T05:25:34.047Z,84.30
2022-12-12T05:28:05.710Z,85.00
2022-12-12T05:30:32.417Z,85.11
2022-12-12T05:32:59.048Z,84.80
2022-12-12T05:35:26.353Z,85.23
2022-12-12T05:37:52.765Z,84.35
2022-12-12T05:40:20.830Z,84.20
2022-12-12T05:42:48.040Z,84.59
2022-12-12T05:45:15.273Z,85.43
2022-12-12T05:47:41.752Z,85.17
2022-12-12T05:50:08.254Z,84.50
2022-12-12T05:52:34.600Z,85.84
2022-12-12T05:55:00.953Z,85.54
2022-12-12T05:57:27.377Z,85.55
2022-12-12T05:59:53.748Z,84.53
2022-12-12T06:02:20.252Z,85.79
2022-12-12T06:04:47.673Z,84.48
2022-12-12T06:07:13.973Z,84.40
2022-12-12T06:09:40.321Z,85.89
2022-12-12T06:12:07.717Z,85.57
2022-12-12T06:14:34.064Z,85.96
2022-12-12T06:17:00.476Z,85.41
2022-12-12T06:19:26.795Z,85.60
2022-12-12T06:21:53.102Z,86.29
2022-12-12T06:24:19.502Z,85.88
2022-12-12T06:26:46.122Z,86.49
2022-12-12T06:29:14.644Z,86.28
2022-12-12T06:31:41.193Z,85.96
2022-12-12T06:34:07.580Z,86.24
2022-12-12T06:36:33.997Z,86.12
2022-12-12T06:39:01.656Z,85.01
2022-12-12T06:41:29.870Z,86.30
2022-12-12T06:43:56.432Z,84.90
2022-12-12T06:46:25.806Z,86.00
2022-12-12T06:48:52.864Z,85.51
2022-12-12T06:51:22.816Z,85.01
2022-12-12T06:53:49.557Z,85.51
2022-12-12T06:56:18.325Z,84.26
2022-12-12T06:58:45.368Z,83.93
2022-12-12T07:01:13.744Z,84.19
2022-12-12T07:03:40.495Z,84.18
2022-12-12T07:06:07.596Z,84.24
2022-12-12T07:08:35.208Z,85.21
2022-12-12T07:11:15.963Z,84.99
2022-12-12T07:13:42.504Z,83.43
2022-12-12T07:16:09.691Z,84.02
2022-12-12T07:18:36.348Z,83.62
2022-12-12T07:21:07.423Z,84.68
2022-12-12T07:23:34.558Z,83.43
2022-12-12T07:26:04.939Z,83.63
2022-12-12T07:28:31.437Z,84.66
2022-12-12T07:30:58.564Z,83.66
2022-12-12T07:33:29.766Z,84.05
2022-12-12T07:36:02.452Z,82.89
2022-12-12T07:38:28.839Z,83.02
2022-12-12T07:40:55.428Z,83.94
2022-12-12T07:43:26.466Z,82.74
2022-12-12T07:45:53.117Z,84.23
2022-12-12T07:48:19.429Z,84.15
2022-12-12T07:50:45.759Z,83.86
2022-12-12T07:53:12.065Z,83.97
2022-12-12T07:55:40.152Z,82.79
2022-12-12T07:58:06.581Z,83.78
2022-12-12T08:00:32.886Z,82.75
2022-12-12T08:02:59.222Z,83.81
2022-12-12T08:05:25.540Z,83.78
2022-12-12T08:07:51.841Z,82.47
2022-12-12T08:10:18.214Z,83.56
2022-12-12T08:12:44.520Z,83.44
2022-12-12T08:15:16.660Z,83.29
2022-12-12T08:17:43.652Z,84.40
2022-12-12T08:20:10.513Z,83.91
2022-12-12T08:22:37.536Z,82.54
2022-12-12T08:25:04.248Z,83.34
2022-12-12T08:27:30.547Z,84.24
2022-12-12T08:29:57.900Z,83.62
2022-12-12T08:32:24.228Z,82.68
2022-12-12T08:34:50.595Z,83.60
2022-12-12T08:37:16.892Z,82.57
2022-12-12T08:39:44.335Z,82.26
2022-12-12T08:42:10.661Z,82.03
2022-12-12T08:44:36.987Z,82.89
2022-12-12T08:47:03.383Z,82.26
2022-12-12T08:49:29.750Z,82.00
2022-12-12T08:51:56.298Z,82.64
2022-12-12T08:54:23.668Z,83.10
2022-12-12T08:56:49.957Z,82.73
2022-12-12T08:59:16.397Z,82.56
2022-12-12T09:01:42.800Z,82.71
2022-12-12T09:04:09.293Z,83.19
2022-12-12T09:06:35.822Z,82.51
2022-12-12T09:09:02.208Z,82.10
2022-12-12T09:11:28.786Z,82.16
2022-12-12T09:13:55.096Z,81.30
2022-12-12T09:16:23.171Z,81.31
2022-12-12T09:18:49.709Z,81.13
2022-12-12T09:21:17.157Z,81.87
2022-12-12T09:23:43.788Z,81.84
2022-12-12T09:26:11.226Z,81.50
2022-12-12T09:28:38.544Z,81.20
2022-12-12T09:31:09.678Z,81.30
2022-12-12T09:33:36.687Z,82.04
2022-12-12T09:36:06.423Z,81.41
2022-12-12T09:38:33.235Z,81.42
2022-12-12T09:41:02.595Z,79.68
2022-12-12T09:43:33.225Z,79.89
2022-12-12T09:46:02.576Z,79.96
2022-12-12T09:48:46.342Z,79.09
2022-12-12T09:51:13.780Z,79.36
2022-12-12T09:53:43.825Z,78.88
2022-12-12T09:56:27.933Z,78.36
2022-12-12T09:59:14.819Z,78.89
2022-12-12T10:01:59.885Z,78.89
2022-12-12T10:04:47.801Z,77.91
2022-12-12T10:07:30.925Z,78.46
2022-12-12T10:10:18.304Z,79.16
2022-12-12T10:12:46.475Z,79.34
2022-12-12T10:15:25.192Z,79.11
2022-12-12T10:17:52.847Z,79.44
2022-12-12T10:20:25.773Z,78.65
2022-12-12T10:22:56.118Z,79.57
2022-12-12T10:25:39.724Z,78.94
2022-12-12T10:28:12.732Z,78.27
2022-12-12T10:31:16.384Z,78.09
2022-12-12T10:34:01.954Z,77.59
2022-12-12T10:36:46.795Z,78.33
2022-12-12T10:39:19.100Z,77.03
2022-12-12T10:41:48.679Z,76.55
2022-12-12T10:44:33.879Z,75.15
2022-12-12T10:47:05.176Z,74.59
2022-12-12T10:49:33.441Z,74.18
2022-12-12T10:52:04.426Z,73.40
2022-12-12T10:54:44.316Z,73.53
2022-12-12T10:57:19.875Z,72.79
2022-12-12T10:59:49.560Z,73.48
2022-12-12T11:02:26.650Z,73.06
2022-12-12T11:05:02.611Z,72.38
2022-12-12T11:07:29.704Z,71.30
2022-12-12T11:10:01.862Z,71.88
2022-12-12T11:12:33.823Z,70.67
2022-12-12T11:15:06.340Z,71.16
2022-12-12T11:17:34.578Z,71.14
2022-12-12T11:20:06.224Z,71.03
2022-12-12T11:22:33.584Z,71.37
2022-12-12T11:25:00.544Z,71.43
2022-12-12T11:27:34.364Z,70.22
2022-12-12T11:30:07.943Z,71.01
2022-12-12T11:32:45.774Z,70.23
2022-12-12T11:35:39.981Z,70.63
2022-12-12T11:38:20.908Z,68.43
2022-12-12T11:40:58.280Z,68.08
2022-12-12T11:43:30.993Z,68.11
2022-12-12T11:45:58.774Z,68.03
2022-12-12T11:48:52.126Z,66.74
2022-12-12T11:51:35.387Z,67.48
2022-12-12T11:54:23.126Z,66.10
2022-12-12T11:57:01.994Z,66.16
2022-12-12T11:59:54.667Z,66.86
2022-12-12T12:02:28.024Z,66.48
2022-12-12T12:05:16.944Z,66.33
2022-12-12T12:08:07.588Z,66.77
2022-12-12T12:10:42.458Z,67.03
2022-12-12T12:13:43.211Z,67.39
2022-12-12T12:16:46.894Z,66.44
2022-12-12T12:19:43.262Z,66.56
2022-12-12T12:22:28.251Z,66.23
2022-12-12T12:25:38.143Z,65.61
2022-12-12T12:28:07.455Z,65.75
2022-12-12T12:30:52.588Z,66.44
2022-12-12T12:33:40.264Z,65.62
2022-12-12T12:36:47.443Z,66.20
2022-12-12T12:39:26.281Z,64.08
2022-12-12T12:42:31.024Z,64.10
2022-12-12T12:45:07.394Z,64.79
2022-12-12T12:47:50.055Z,64.56
2022-12-12T12:50:19.303Z,66.28
2022-12-12T12:52:54.690Z,65.27
2022-12-12T12:55:31.915Z,64.35
2022-12-12T12:58:01.046Z,64.26
2022-12-12T13:00:30.194Z,65.85
2022-12-12T13:03:08.356Z,65.19
2022-12-12T13:05:41.328Z,65.20
2022-12-12T13:08:40.206Z,66.48
2022-12-12T13:11:15.463Z,65.43
2022-12-12T13:13:44.777Z,64.30
2022-12-12T13:16:16.244Z,64.53
2022-12-12T13:18:45.346Z,65.34
2022-12-12T13:21:36.756Z,65.68
2022-12-12T13:24:13.721Z,65.23
2022-12-12T13:26:57.447Z,65.04
2022-12-12T13:29:48.210Z,65.22
2022-12-12T13:32:20.682Z,65.55
2022-12-12T13:34:51.948Z,64.46
2022-12-12T13:37:20.690Z,64.48
2022-12-12T13:39:57.451Z,64.88
2022-12-12T13:42:23.800Z,64.63
2022-12-12T13:44:50.268Z,64.11
2022-12-12T13:47:22.288Z,64.02
2022-12-12T13:50:06.807Z,63.72
2022-12-12T13:52:37.751Z,63.99
2022-12-12T13:55:13.172Z,64.16
2022-12-12T13:58:05.692Z,63.55
2022-12-12T14:00:33.919Z,63.57
2022-12-12T14:03:05.091Z,63.61
2022-12-12T14:05:35.916Z,63.59
2022-12-12T14:08:25.579Z,64.07
2022-12-12T14:10:59.242Z,62.89
2022-12-12T14:13:30.879Z,63.60
2022-12-12T14:15:57.191Z,63.66
2022-12-12T14:18:30.556Z,63.37
2022-12-12T14:21:36.316Z,63.96
2022-12-12T14:24:33.309Z,63.84
2022-12-12T14:27:01.202Z,63.63
2022-12-12T14:29:29.955Z,64.31
2022-12-12T14:31:56.210Z,64.00
2022-12-12T14:34:57.158Z,63.27
2022-12-12T14:37:51.181Z,63.77
2022-12-12T14:40:22.744Z,63.85
2022-12-12T14:43:20.356Z,64.41
2022-12-12T14:45:50.973Z,64.60
2022-12-12T14:48:21.919Z,64.97
2022-12-12T14:51:10.441Z,64.37
2022-12-12T14:53:36.716Z,64.76
2022-12-12T14:56:08.980Z,64.77
2022-12-12T14:58:39.835Z,64.62
2022-12-12T15:01:06.704Z,64.86
2022-12-12T15:03:44.632Z,64.39
2022-12-12T15:06:26.714Z,63.93
2022-12-12T15:08:54.198Z,64.19
2022-12-12T15:11:23.936Z,64.30
2022-12-12T15:13:51.746Z,65.56
2022-12-12T15:16:20.529Z,65.38
2022-12-12T15:18:50.691Z,65.61
2022-12-12T15:21:19.514Z,65.66
2022-12-12T15:23:46.416Z,66.49
2022-12-12T15:26:23.989Z,66.97
2022-12-12T15:28:50.425Z,66.91
2022-12-12T15:31:19.177Z,66.15
2022-12-12T15:33:47.432Z,67.19
2022-12-12T15:36:28.316Z,66.92
2022-12-12T15:39:15.509Z,67.03
2022-12-12T15:41:44.074Z,67.21
2022-12-12T15:44:21.536Z,68.30
2022-12-12T15:46:50.270Z,68.86
2022-12-12T15:49:37.587Z,69.43
2022-12-12T15:52:19.239Z,68.34
2022-12-12T15:54:52.119Z,68.30
2022-12-12T15:57:22.179Z,69.22
2022-12-12T16:00:05.148Z,70.09
2022-12-12T16:02:33.710Z,69.46
2022-12-12T16:05:18.119Z,70.17
2022-12-12T16:07:44.805Z,70.78
2022-12-12T16:10:11.764Z,71.24
2022-12-12T16:13:15.382Z,71.89
2022-12-12T16:15:41.731Z,71.42
2022-12-12T16:18:14.378Z,72.74
2022-12-12T16:20:47.919Z,73.24
2022-12-12T16:23:33.010Z,73.24
2022-12-12T16:25:59.857Z,73.60
2022-12-12T16:28:28.556Z,74.05
2022-12-12T16:31:02.476Z,74.25
2022-12-12T16:33:37.483Z,73.87
2022-12-12T16:36:10.191Z,74.27
2022-12-12T16:38:37.439Z,74.05
2022-12-12T16:41:07.792Z,74.23
2022-12-12T16:43:34.809Z,75.48
2022-12-12T16:46:01.272Z,75.55
2022-12-12T16:48:36.226Z,75.53
2022-12-12T16:51:06.075Z,75.76
2022-12-12T16:53:34.706Z,76.64
2022-12-12T16:56:01.776Z,76.71
2022-12-12T16:58:28.397Z,76.97
2022-12-12T17:00:55.145Z,76.43
2022-12-12T17:03:26.204Z,77.31
2022-12-12T17:05:53.017Z,76.67
2022-12-12T17:08:19.797Z,76.79
2022-12-12T17:10:48.083Z,77.25
2022-12-12T17:13:19.885Z,77.26
2022-12-12T17:15:46.436Z,77.46
2022-12-12T17:18:13.207Z,77.83
2022-12-12T17:20:39.988Z,77.16
2022-12-12T17:25:54.712Z,77.37
2022-12-12T17:28:25.678Z,77.85
2022-12-12T17:30:52.128Z,77.55
2022-12-12T17:33:18.551Z,77.82
2022-12-12T17:35:45.512Z,78.04
2022-12-12T17:38:16.202Z,78.50
2022-12-12T17:40:43.582Z,78.02
2022-12-12T17:43:10.006Z,79.00
2022-12-12T17:45:36.389Z,78.52
2022-12-12T17:48:04.562Z,79.18
2022-12-12T17:50:31.110Z,78.95
2022-12-12T17:52:57.643Z,79.57
2022-12-12T17:55:54.531Z,79.38
2022-12-12T17:58:10.543Z,78.88
2022-12-12T18:00:37.688Z,79.75
2022-12-12T18:03:04.458Z,79.66
2022-12-12T18:05:31.879Z,79.39
2022-12-12T18:07:59.315Z,79.72
2022-12-12T18:10:25.774Z,81.07
2022-12-12T18:12:52.323Z,81.44
2022-12-12T18:15:19.121Z,81.06
2022-12-12T18:17:45.512Z,81.34
2022-12-12T18:20:12.444Z,81.22
2022-12-12T18:22:39.235Z,80.95
2022-12-12T18:25:06.164Z,81.27
2022-12-12T18:27:32.483Z,81.51
2022-12-12T18:29:58.867Z,82.01
2022-12-12T18:32:25.200Z,81.57
2022-12-12T18:34:51.514Z,81.72
2022-12-12T18:37:17.935Z,81.50
2022-12-12T18:39:44.226Z,82.16
2022-12-12T18:42:11.860Z,82.77
2022-12-12T18:44:38.179Z,82.66
2022-12-12T18:47:04.572Z,82.67
2022-12-12T18:49:31.274Z,82.40
2022-12-12T18:51:57.705Z,82.32
2022-12-12T18:54:24.022Z,81.88
2022-12-12T18:56:50.382Z,82.09
2022-12-12T18:59:17.217Z,82.05
2022-12-12T19:01:43.955Z,82.43
2022-12-12T19:04:13.442Z,82.09
2022-12-12T19:06:43.045Z,82.99
2022-12-12T19:09:17.991Z,82.39
2022-12-12T19:11:44.827Z,82.02
2022-12-12T19:14:13.082Z,82.19
2022-12-12T19:16:42.779Z,83.69
2022-12-12T19:19:09.577Z,83.21
2022-12-12T19:21:38.269Z,83.55
2022-12-12T19:24:08.870Z,82.97
2022-12-12T19:26:35.340Z,82.52
2022-12-12T19:29:05.555Z,83.36
2022-12-12T19:31:36.005Z,82.84
2022-12-12T19:34:05.032Z,82.75
2022-12-12T19:36:32.404Z,82.92
2022-12-12T19:39:03.376Z,83.31
2022-12-12T19:41:29.767Z,84.24
2022-12-12T19:43:58.629Z,83.45
2022-12-12T19:46:26.939Z,82.77
2022-12-12T19:48:58.960Z,83.88
2022-12-12T19:51:27.121Z,83.78
2022-12-12T19:53:56.535Z,82.83
2022-12-12T19:56:26.338Z,84.93
2022-12-12T19:58:53.175Z,83.92
2022-12-12T20:01:22.247Z,83.64
2022-12-12T20:03:51.108Z,84.34
2022-12-12T20:06:18.276Z,84.38
2022-12-12T20:08:45.187Z,83.47
2022-12-12T20:11:14.186Z,85.36
2022-12-12T20:13:40.863Z,84.47
2022-12-12T20:16:12.678Z,85.33
2022-12-12T20:18:41.183Z,84.45
2022-12-12T20:21:09.398Z,84.47
2022-12-12T20:23:41.102Z,84.09
2022-12-12T20:26:17.237Z,84.94
2022-12-12T20:28:44.199Z,84.85
2022-12-12T20:31:16.292Z,84.21
2022-12-12T20:33:43.292Z,85.85
2022-12-12T20:36:12.167Z,84.86
2022-12-12T20:38:39.500Z,84.20
2022-12-12T20:41:24.490Z,84.16
2022-12-12T20:43:53.773Z,85.09
2022-12-12T20:46:32.491Z,84.67
2022-12-12T20:49:00.783Z,84.65
2022-12-12T20:51:54.201Z,84.22
2022-12-12T20:54:17.136Z,85.45
2022-12-12T20:56:46.305Z,84.42
2022-12-12T20:59:14.177Z,85.84
2022-12-12T21:01:40.523Z,84.89
2022-12-12T21:04:10.542Z,84.64
2022-12-12T21:06:48.001Z,85.25
2022-12-12T21:09:22.801Z,86.01
2022-12-12T21:11:50.724Z,85.26
2022-12-12T21:14:17.084Z,85.57
2022-12-12T21:16:43.416Z,84.84
2022-12-12T21:19:12.225Z,85.21
2022-12-12T21:21:40.236Z,85.45
2022-12-12T21:24:07.422Z,84.93
2022-12-12T21:26:34.265Z,86.33
2022-12-12T21:29:04.768Z,85.28
2022-12-12T21:31:35.216Z,85.35
2022-12-12T21:34:01.716Z,86.89
2022-12-12T21:36:29.416Z,86.60
2022-12-12T21:38:57.840Z,86.97
2022-12-12T21:41:24.755Z,86.72
2022-12-12T21:43:52.141Z,86.02
2022-12-12T21:46:21.521Z,85.10
2022-12-12T21:49:08.448Z,85.56
2022-12-12T21:51:35.682Z,85.59
2022-12-12T21:54:03.215Z,86.82
2022-12-12T21:56:30.111Z,86.77
2022-12-12T21:58:57.148Z,86.32
2022-12-12T22:01:24.146Z,85.10
2022-12-12T22:03:50.538Z,85.44
2022-12-12T22:06:22.398Z,85.08
2022-12-12T22:08:49.823Z,85.91
2022-12-12T22:11:23.841Z,85.07
2022-12-12T22:14:05.826Z,85.58
2022-12-12T22:16:33.481Z,86.09
2022-12-12T22:19:06.367Z,85.38
2022-12-12T22:21:33.599Z,85.37
2022-12-12T22:24:00.359Z,86.92
2022-12-12T22:26:38.522Z,85.62
2022-12-12T22:29:13.730Z,86.38
2022-12-12T22:31:41.220Z,85.94
2022-12-12T22:34:15.405Z,86.63
2022-12-12T22:36:42.459Z,86.99
2022-12-12T22:39:13.964Z,86.02
2022-12-12T22:41:40.307Z,85.86
2022-12-12T22:44:07.144Z,85.97
2022-12-12T22:46:36.939Z,86.71
2022-12-12T22:49:10.464Z,86.97
2022-12-12T22:51:36.779Z,86.81
2022-12-12T22:54:05.134Z,86.53
2022-12-12T22:56:34.046Z,86.93
2022-12-12T22:59:00.380Z,86.97
2022-12-12T23:01:27.684Z,86.13
2022-12-12T23:03:54.380Z,85.86
2022-12-12T23:06:24.812Z,87.07
2022-12-12T23:08:53.637Z,85.97
2022-12-12T23:11:22.391Z,85.86
2022-12-12T23:13:48.946Z,86.65
2022-12-12T23:16:17.973Z,87.10
2022-12-12T23:18:46.115Z,87.11
2022-12-12T23:21:17.000Z,87.07
2022-12-12T23:23:44.972Z,86.79
2022-12-12T23:26:17.367Z,86.45
2022-12-12T23:28:44.635Z,86.27
2022-12-12T23:31:13.336Z,86.60
2022-12-12T23:33:40.091Z,86.96
2022-12-12T23:36:11.870Z,87.10
2022-12-12T23:38:38.291Z,87.07
2022-12-12T23:41:06.747Z,86.96
2022-12-12T23:43:33.603Z,87.01
2022-12-12T23:46:05.628Z,86.17
2022-12-12T23:48:32.763Z,86.62
2022-12-12T23:50:59.466Z,86.73
2022-12-12T23:53:27.211Z,86.78
2022-12-12T23:55:53.695Z,87.21
2022-12-12T23:58:20.009Z,87.47
